Time;durP1;ratioP1;P1;durP2;ratioP2;P2;SDS_P1;SDS_P2;PMS_P1;PMS_P2;Temp;Humidity;BMP_temperature;BMP_pressure;BME280_temperature;BME280_humidity;BME280_pressure;Samples;Min_cycle;Max_cycle;Signal;HPM_P1;HPM_P2
2023/02/24 00:02:20;;;;;;;;;30.75;24.50;;;;;10.82;100.00;101193.66;5017415;28;70538;-75
2023/02/24 00:04:50;;;;;;;;;32.50;24.00;;;;;10.80;100.00;101189.41;5018284;28;45417;-75
2023/02/24 00:07:16;;;;;;;;;31.25;23.00;;;;;10.86;100.00;101199.66;5018122;28;45504;-76
2023/02/24 00:09:43;;;;;;;;;39.75;26.50;;;;;10.82;100.00;101185.84;5018046;28;45532;-76
2023/02/24 00:12:14;;;;;;;;;30.75;24.25;;;;;10.81;100.00;101183.31;5017714;28;46201;-76
2023/02/24 00:14:41;;;;;;;;;43.75;27.00;;;;;10.87;100.00;101195.34;4983477;28;45400;-76
2023/02/24 00:17:07;;;;;;;;;39.00;26.50;;;;;10.86;100.00;101194.44;4998384;28;45388;-76
2023/02/24 00:19:33;;;;;;;;;39.25;26.25;;;;;10.88;100.00;101191.81;4996955;28;45559;-76
2023/02/24 00:21:59;;;;;;;;;26.50;22.00;;;;;10.86;100.00;101189.25;4998186;28;45525;-77
2023/02/24 00:24:25;;;;;;;;;37.25;24.50;;;;;10.87;100.00;101183.16;4997164;28;45308;-76
2023/02/24 00:26:55;;;;;;;;;42.25;23.75;;;;;10.81;100.00;101170.28;4997787;28;45312;-77
2023/02/24 00:29:22;;;;;;;;;36.00;27.75;;;;;10.83;100.00;101182.38;4997965;28;46273;-77
2023/02/24 00:31:58;;;;;;;;;38.50;28.75;;;;;10.78;100.00;101180.75;4980490;28;45723;-78
2023/02/24 00:34:35;;;;;;;;;43.50;26.50;;;;;10.78;100.00;101191.19;4998067;28;45346;-75
2023/02/24 00:37:01;;;;;;;;;33.75;27.00;;;;;10.78;100.00;101180.75;4997370;28;45468;-74
2023/02/24 00:39:28;;;;;;;;;37.00;28.00;;;;;10.78;100.00;101176.41;4997472;28;46447;-75
2023/02/24 00:42:03;;;;;;;;;40.00;27.50;;;;;10.75;100.00;101170.41;4980624;28;45351;-75
2023/02/24 00:44:28;;;;;;;;;54.25;31.75;;;;;10.75;100.00;101173.84;4998043;28;45394;-77
2023/02/24 00:46:54;;;;;;;;;43.00;27.50;;;;;10.72;100.00;101170.50;4996645;28;45450;-77
2023/02/24 00:49:19;;;;;;;;;39.00;24.25;;;;;10.68;100.00;101161.91;5033218;28;68648;-75
2023/02/24 00:51:47;;;;;;;;;34.00;24.50;;;;;10.73;100.00;101170.44;5037844;28;45524;-75
2023/02/24 00:54:13;;;;;;;;;37.25;22.50;;;;;10.70;100.00;101165.31;5037145;28;45272;-75
2023/02/24 00:56:40;;;;;;;;;37.75;26.50;;;;;10.74;100.00;101163.50;5036216;28;45463;-76
2023/02/24 00:59:06;;;;;;;;;37.00;27.25;;;;;10.72;100.00;101155.72;5036043;28;45506;-75
2023/02/24 01:01:32;;;;;;;;;44.75;29.00;;;;;10.74;100.00;101150.50;5037415;28;45513;-75
2023/02/24 01:03:59;;;;;;;;;39.25;25.25;;;;;10.74;100.00;101147.88;5036063;28;45490;-75
2023/02/24 01:06:28;;;;;;;;;40.25;26.50;;;;;10.73;100.00;101147.00;5037489;28;45398;-75
2023/02/24 01:08:54;;;;;;;;;36.25;21.00;;;;;10.70;100.00;101149.69;5035427;28;46159;-76
2023/02/24 01:14:13;;;;;;;;;33.75;23.75;;;;;10.73;100.00;101159.19;5037087;28;45374;-76
2023/02/24 01:16:40;;;;;;;;;37.25;25.25;;;;;10.74;100.00;101155.69;5037099;28;45346;-76
2023/02/24 01:19:06;;;;;;;;;41.25;24.25;;;;;10.74;100.00;101145.28;5035683;28;46380;-77
2023/02/24 01:21:32;;;;;;;;;50.50;28.50;;;;;10.75;100.00;101149.56;5036764;28;45518;-75
2023/02/24 01:23:57;;;;;;;;;33.25;25.00;;;;;10.75;100.00;101145.22;5036084;28;63027;-76
2023/02/24 01:26:24;;;;;;;;;37.50;24.50;;;;;10.76;100.00;101146.09;5035959;28;66458;-76
2023/02/24 01:28:50;;;;;;;;;39.25;30.75;;;;;10.73;100.00;101143.56;5036666;28;46700;-76
2023/02/24 01:31:17;;;;;;;;;39.75;27.75;;;;;10.74;100.00;101142.66;5036882;28;45382;-75
2023/02/24 01:33:44;;;;;;;;;49.00;27.50;;;;;10.77;100.00;101137.38;5036746;28;45469;-75
2023/02/24 01:36:14;;;;;;;;;31.75;26.75;;;;;10.73;100.00;101139.19;5035529;28;45486;-76
2023/02/24 01:38:43;;;;;;;;;43.00;30.25;;;;;10.71;100.00;101134.91;5036202;28;46342;-75
2023/02/24 01:41:12;;;;;;;;;36.25;23.75;;;;;10.68;100.00;101128.06;5035419;28;45378;-75
2023/02/24 01:44:12;;;;;;;;;33.50;30.25;;;;;10.65;100.00;101126.34;5035652;28;45352;-76
2023/02/24 01:46:39;;;;;;;;;46.00;27.25;;;;;10.64;100.00;101122.06;5036838;28;45571;-76
2023/02/24 01:49:12;;;;;;;;;40.00;30.75;;;;;10.64;100.00;101121.19;5034392;28;46544;-75
2023/02/24 01:52:01;;;;;;;;;37.75;28.25;;;;;10.63;100.00;101119.47;4998916;28;45503;-75
2023/02/24 01:54:48;;;;;;;;;48.25;28.25;;;;;10.63;100.00;101119.47;5016627;28;45347;-75
2023/02/24 01:57:18;;;;;;;;;39.75;30.75;;;;;10.62;100.00;101107.34;4989128;28;45376;-76
2023/02/24 01:59:47;;;;;;;;;36.00;26.00;;;;;10.56;100.00;101099.69;4998779;28;46086;-77
2023/02/24 02:02:14;;;;;;;;;47.50;28.25;;;;;10.58;100.00;101105.72;5016372;28;45392;-78
2023/02/24 02:04:43;;;;;;;;;43.00;28.75;;;;;10.59;100.00;101103.06;4998828;28;51329;-76
2023/02/24 02:07:11;;;;;;;;;36.75;24.50;;;;;10.56;100.00;101100.53;4998450;28;45524;-75
2023/02/24 02:09:37;;;;;;;;;39.75;31.25;;;;;10.46;100.00;101091.25;4998697;28;46410;-76
2023/02/24 02:12:03;;;;;;;;;41.00;27.75;;;;;10.45;100.00;101098.16;4998668;28;45524;-76
2023/02/24 02:14:29;;;;;;;;;43.75;29.25;;;;;10.43;100.00;101099.94;5015389;28;62782;-76
2023/02/24 02:17:08;;;;;;;;;36.25;25.75;;;;;10.40;100.00;101088.75;5016210;28;45411;-75
2023/02/24 02:20:06;;;;;;;;;42.50;29.75;;;;;10.36;100.00;101084.50;5016227;28;46365;-76
2023/02/24 02:23:06;;;;;;;;;34.00;29.75;;;;;10.30;100.00;101080.28;4998953;28;45249;-76
2023/02/24 02:25:54;;;;;;;;;41.00;28.25;;;;;10.31;100.00;101096.75;4998609;28;45482;-75
2023/02/24 02:28:52;;;;;;;;;42.00;28.75;;;;;10.26;100.00;101086.44;4935411;28;45486;-75
2023/02/24 02:31:55;;;;;;;;;42.50;31.50;;;;;10.23;100.00;101081.28;4935466;28;46564;-75
2023/02/24 02:34:37;;;;;;;;;43.00;26.75;;;;;10.23;100.00;101078.69;4935399;28;45483;-75
2023/02/24 02:37:13;;;;;;;;;28.25;22.75;;;;;10.23;100.00;101073.50;4935386;28;45305;-76
2023/02/24 02:39:47;;;;;;;;;37.25;27.25;;;;;10.24;100.00;101073.47;4935583;28;45494;-75
2023/02/24 02:42:28;;;;;;;;;37.25;29.75;;;;;10.25;100.00;101071.72;4935188;28;45509;-75
2023/02/24 02:45:22;;;;;;;;;35.50;26.50;;;;;10.21;100.00;101062.25;4935368;28;45884;-75
2023/02/24 02:47:52;;;;;;;;;32.50;23.25;;;;;10.22;100.00;101069.19;4903138;28;45376;-75
2023/02/24 02:50:25;;;;;;;;;34.50;25.25;;;;;10.21;100.00;101063.13;4915759;28;45412;-76
2023/02/24 02:53:01;;;;;;;;;36.50;28.50;;;;;10.20;100.00;101056.22;4915822;28;47485;-76
2023/02/24 02:55:46;;;;;;;;;39.25;26.50;;;;;10.21;100.00;101054.47;4916093;28;46046;-75
2023/02/24 02:58:18;;;;;;;;;47.25;27.00;;;;;10.18;100.00;101059.75;4915980;28;45529;-75
2023/02/24 03:01:00;;;;;;;;;40.00;25.50;;;;;10.18;100.00;101057.16;4915673;28;45320;-75
2023/02/24 03:03:48;;;;;;;;;41.25;27.00;;;;;10.20;100.00;101050.16;4915961;28;46397;-76
2023/02/24 03:06:21;;;;;;;;;33.25;25.50;;;;;10.18;100.00;101038.94;4931856;28;45442;-76
2023/02/24 03:09:14;;;;;;;;;37.25;26.25;;;;;10.19;100.00;101043.22;4919052;28;45357;-77
2023/02/24 03:11:47;;;;;;;;;32.50;26.00;;;;;10.16;100.00;101046.78;4913935;28;45607;-76
2023/02/24 03:14:15;;;;;;;;;41.75;31.00;;;;;10.16;100.00;101051.09;4931745;28;45718;-75
2023/02/24 03:16:44;;;;;;;;;37.00;27.50;;;;;10.16;100.00;101049.38;4937964;28;45309;-75
2023/02/24 03:19:13;;;;;;;;;39.50;26.00;;;;;10.18;100.00;101059.75;4937958;28;45492;-76
2023/02/24 03:21:44;;;;;;;;;37.25;27.50;;;;;10.19;100.00;101067.50;4938047;28;45536;-76
2023/02/24 03:24:09;;;;;;;;;30.75;23.75;;;;;10.19;100.00;101059.69;4953209;28;46566;-75
2023/02/24 03:26:51;;;;;;;;;37.50;27.50;;;;;10.14;100.00;101058.97;5017160;28;45346;-76
2023/02/24 03:29:22;;;;;;;;;31.00;27.00;;;;;10.11;100.00;101052.97;5035334;28;45361;-76
2023/02/24 03:32:08;;;;;;;;;38.75;30.00;;;;;10.12;100.00;101052.06;5017834;28;45429;-75
2023/02/24 03:34:54;;;;;;;;;38.25;26.50;;;;;10.10;100.00;101051.25;5016817;28;46140;-75
2023/02/24 03:37:25;;;;;;;;;34.75;26.50;;;;;10.09;100.00;101047.78;5017452;28;45348;-74
2023/02/24 03:39:52;;;;;;;;;35.75;23.25;;;;;10.09;100.00;101047.78;5035242;28;45389;-74
2023/02/24 03:42:19;;;;;;;;;31.75;25.00;;;;;10.11;100.00;101051.22;5017400;28;45345;-77
2023/02/24 03:44:44;;;;;;;;;41.00;29.75;;;;;10.14;100.00;101051.16;5017120;28;45494;-78
2023/02/24 03:47:10;;;;;;;;;39.75;28.25;;;;;10.15;100.00;101045.06;5016113;28;70866;-77
2023/02/24 03:49:37;;;;;;;;;29.75;23.00;;;;;10.16;100.00;101044.16;5033384;28;45409;-77
2023/02/24 03:52:20;;;;;;;;;36.00;28.25;;;;;10.17;100.00;101042.41;5034941;28;45382;-78
2023/02/24 03:55:07;;;;;;;;;36.25;27.25;;;;;10.17;100.00;101039.81;5034843;28;46560;-77
2023/02/24 03:57:53;;;;;;;;;32.50;27.50;;;;;10.19;100.00;101040.63;5035042;28;45903;-74
2023/02/24 04:00:46;;;;;;;;;38.00;27.00;;;;;10.21;100.00;101031.91;5034015;28;45408;-77
2023/02/24 04:03:25;;;;;;;;;34.00;28.25;;;;;10.24;100.00;101029.22;4956665;28;45710;-77
2023/02/24 04:06:00;;;;;;;;;35.25;28.50;;;;;10.21;100.00;101018.03;4956922;28;45485;-77
2023/02/24 04:08:28;;;;;;;;;45.50;26.50;;;;;10.24;100.00;101021.44;4956981;28;45982;-74
2023/02/24 04:11:04;;;;;;;;;22.00;15.50;;;;;10.22;100.00;101010.22;4957042;28;45465;-74
2023/02/24 04:13:44;;;;;;;;;31.50;23.00;;;;;10.26;100.00;101009.22;4966611;28;45631;-74
2023/02/24 04:16:27;;;;;;;;;40.25;29.00;;;;;10.25;100.00;100997.13;4995838;28;46512;-75
2023/02/24 04:18:57;;;;;;;;;32.50;28.25;;;;;10.28;100.00;101004.00;4980400;28;45841;-74
2023/02/24 04:21:25;;;;;;;;;39.50;28.00;;;;;10.27;100.00;100999.72;4979839;28;45292;-74
2023/02/24 04:23:52;;;;;;;;;35.00;23.25;;;;;10.26;100.00;100998.81;4979688;28;45511;-77
2023/02/24 04:26:18;;;;;;;;;44.75;27.75;;;;;10.22;100.00;100991.16;4979408;28;47104;-75
2023/02/24 04:28:47;;;;;;;;;34.50;23.00;;;;;10.24;100.00;100992.81;4979759;28;45495;-76
2023/02/24 04:31:16;;;;;;;;;33.00;21.25;;;;;10.20;100.00;100987.72;4979841;28;45280;-77
2023/02/24 04:33:41;;;;;;;;;36.00;23.75;;;;;10.16;100.00;100981.75;4995461;28;45438;-76
2023/02/24 04:36:07;;;;;;;;;32.50;23.25;;;;;10.18;100.00;100981.72;4979197;28;45678;-76
2023/02/24 04:38:34;;;;;;;;;32.75;28.75;;;;;10.15;100.00;100977.41;4979114;28;46078;-77
2023/02/24 04:40:59;;;;;;;;;36.00;23.75;;;;;10.15;100.00;100969.63;5027278;28;45397;-76
2023/02/24 04:43:25;;;;;;;;;35.75;27.00;;;;;10.13;100.00;100975.75;5036537;28;45331;-76
2023/02/24 04:45:50;;;;;;;;;33.25;24.00;;;;;10.11;100.00;100978.38;5036227;28;46319;-77
2023/02/24 04:48:18;;;;;;;;;44.50;23.75;;;;;10.05;100.00;100966.38;5046584;28;68620;-77
2023/02/24 04:50:44;;;;;;;;;34.50;27.25;;;;;10.04;100.00;100972.44;5043363;28;45423;-76
2023/02/24 04:53:14;;;;;;;;;32.75;27.50;;;;;10.01;100.00;100971.66;5037655;28;45609;-76
2023/02/24 04:55:42;;;;;;;;;39.75;31.00;;;;;9.98;100.00;100972.59;5037456;28;45592;-76
2023/02/24 04:58:12;;;;;;;;;42.25;28.75;;;;;9.93;100.00;100971.84;5037310;28;45365;-76
2023/02/24 05:00:40;;;;;;;;;43.25;32.50;;;;;9.95;100.00;100971.81;5019392;28;45488;-76
2023/02/24 05:03:06;;;;;;;;;41.50;29.75;;;;;9.92;100.00;100979.69;5037264;28;45254;-76
2023/02/24 05:05:32;;;;;;;;;42.75;30.50;;;;;9.86;100.00;100978.06;5037133;28;46434;-76
2023/02/24 05:08:04;;;;;;;;;35.25;27.75;;;;;9.80;100.00;100967.81;5019444;28;45473;-76
2023/02/24 05:10:43;;;;;;;;;41.25;27.75;;;;;9.77;100.00;100965.28;5037225;28;45503;-76
2023/02/24 05:13:13;;;;;;;;;37.00;26.75;;;;;9.72;100.00;100967.13;5041426;28;45318;-76
2023/02/24 05:15:40;;;;;;;;;35.75;28.25;;;;;9.71;100.00;100966.25;5057056;28;46130;-76
2023/02/24 05:18:08;;;;;;;;;44.75;25.75;;;;;9.69;100.00;100968.03;5038868;28;45447;-77
2023/02/24 05:23:33;;;;;;;;;37.00;29.00;;;;;9.68;100.00;100974.16;5041628;28;45748;-76
2023/02/24 05:26:02;;;;;;;;;38.25;29.50;;;;;9.67;100.00;100964.63;5056736;28;46237;-77
2023/02/24 05:28:31;;;;;;;;;42.75;31.75;;;;;9.70;100.00;100972.38;5056995;28;45305;-77
2023/02/24 05:31:15;;;;;;;;;35.50;29.75;;;;;9.69;100.00;100961.13;5056845;28;45305;-77
2023/02/24 05:33:46;;;;;;;;;35.25;28.00;;;;;9.63;100.00;100952.59;5039386;28;45523;-77
2023/02/24 05:36:16;;;;;;;;;31.25;24.25;;;;;9.64;100.00;100962.09;5039005;28;47129;-77
2023/02/24 05:38:42;;;;;;;;;31.00;24.00;;;;;9.62;100.00;100961.25;5056875;28;45454;-76
2023/02/24 05:41:15;;;;;;;;;33.25;27.00;;;;;9.61;100.00;100960.41;5038990;28;45419;-76
2023/02/24 05:43:47;;;;;;;;;35.50;26.75;;;;;9.62;100.00;100956.06;5039175;28;45542;-77
2023/02/24 05:46:13;;;;;;;;;35.75;29.25;;;;;9.59;100.00;100954.41;5038677;28;47091;-77
2023/02/24 05:48:39;;;;;;;;;29.75;20.50;;;;;9.61;100.00;100956.97;5056528;28;45473;-76
2023/02/24 05:51:10;;;;;;;;;30.25;21.75;;;;;9.57;100.00;100948.38;5039572;28;45280;-76
2023/02/24 05:53:40;;;;;;;;;26.75;23.50;;;;;9.64;100.00;100951.72;5036717;28;45368;-77
2023/02/24 05:56:06;;;;;;;;;35.25;23.50;;;;;9.68;100.00;100953.34;5019184;28;45389;-76
2023/02/24 05:58:31;;;;;;;;;38.75;28.00;;;;;9.70;100.00;100951.56;5018239;28;45358;-77
2023/02/24 06:01:04;;;;;;;;;40.75;29.50;;;;;9.71;100.00;100948.06;5035666;28;66915;-76
2023/02/24 06:03:29;;;;;;;;;30.50;28.00;;;;;9.69;100.00;100947.25;5036669;28;45367;-77
2023/02/24 06:05:58;;;;;;;;;38.50;23.50;;;;;9.66;100.00;100942.97;5018602;28;45698;-77
2023/02/24 06:08:24;;;;;;;;;30.50;19.00;;;;;9.60;100.00;100930.13;5019262;28;45390;-77
2023/02/24 06:10:50;;;;;;;;;34.50;26.75;;;;;9.65;100.00;100930.88;5036511;28;45513;-77
2023/02/24 06:13:16;;;;;;;;;24.50;20.00;;;;;9.66;100.00;100937.78;5035860;28;45348;-77
2023/02/24 06:15:48;;;;;;;;;40.00;25.00;;;;;9.66;100.00;100929.13;5035901;28;53646;-77
2023/02/24 06:18:16;;;;;;;;;34.25;26.50;;;;;9.65;100.00;100930.00;5036099;28;45380;-76
2023/02/24 06:20:43;;;;;;;;;30.25;24.50;;;;;9.55;100.00;100915.53;5036253;28;45381;-77
2023/02/24 06:23:08;;;;;;;;;30.25;22.00;;;;;9.57;100.00;100924.16;5036206;28;45423;-77
2023/02/24 06:25:38;;;;;;;;;28.25;22.50;;;;;9.56;100.00;100918.06;5035870;28;46308;-77
2023/02/24 06:28:03;;;;;;;;;32.75;23.25;;;;;9.55;100.00;100923.31;5035656;28;45421;-77
2023/02/24 06:30:28;;;;;;;;;35.25;22.25;;;;;9.53;100.00;100925.94;5036200;28;45438;-77
2023/02/24 06:32:55;;;;;;;;;38.75;24.50;;;;;9.53;100.00;100931.16;5035173;28;68832;-76
2023/02/24 06:35:21;;;;;;;;;39.00;22.00;;;;;9.50;100.00;100921.66;5035235;28;46549;-76
2023/02/24 06:37:47;;;;;;;;;34.25;23.25;;;;;9.47;100.00;100916.53;5035827;28;45858;-76
2023/02/24 06:40:19;;;;;;;;;38.75;22.75;;;;;9.50;100.00;100931.19;5036238;28;45302;-76
2023/02/24 06:42:48;;;;;;;;;27.00;23.00;;;;;9.44;100.00;100924.41;5035824;28;45388;-76
2023/02/24 06:45:15;;;;;;;;;43.50;23.25;;;;;9.44;100.00;100927.00;5035846;28;46296;-76
2023/02/24 06:47:41;;;;;;;;;32.00;23.25;;;;;9.38;100.00;100923.66;5035777;28;45611;-76
2023/02/24 06:50:09;;;;;;;;;36.00;22.25;;;;;9.35;100.00;100929.78;5008974;28;45349;-76
2023/02/24 06:52:35;;;;;;;;;34.00;23.75;;;;;9.37;100.00;100946.19;5015919;28;45367;-76
2023/02/24 06:55:03;;;;;;;;;36.75;25.75;;;;;9.37;100.00;100947.94;5015737;28;46993;-75
2023/02/24 06:57:31;;;;;;;;;40.00;24.50;;;;;9.36;100.00;100941.03;5015291;28;45438;-77
2023/02/24 06:59:57;;;;;;;;;35.50;27.50;;;;;9.35;100.00;100942.78;5015757;28;45353;-77
2023/02/24 07:02:25;;;;;;;;;37.50;25.50;;;;;9.37;100.00;100950.53;4998081;28;45295;-78
2023/02/24 07:04:54;;;;;;;;;36.25;25.75;;;;;9.27;100.00;100936.91;5015552;28;45366;-79
2023/02/24 07:07:19;;;;;;;;;24.75;15.50;;;;;9.25;100.00;100933.47;5015634;28;45860;-79
2023/02/24 07:09:44;;;;;;;;;28.25;19.25;;;;;9.22;100.00;100934.38;5014897;28;62398;-79
2023/02/24 07:12:11;;;;;;;;;34.00;26.00;;;;;9.25;100.00;100947.31;5015132;28;45482;-78
2023/02/24 07:14:37;;;;;;;;;34.75;23.50;;;;;9.29;100.00;100953.28;5031646;28;46769;-78
2023/02/24 07:17:02;;;;;;;;;30.75;21.50;;;;;9.20;100.00;100938.75;5031260;28;45354;-78
2023/02/24 07:19:31;;;;;;;;;35.50;19.75;;;;;9.30;100.00;100952.41;5011316;28;56171;-78
2023/02/24 07:22:01;;;;;;;;;22.25;21.00;;;;;9.19;100.00;100939.63;5012443;28;45519;-79
2023/02/24 07:24:34;;;;;;;;;41.00;27.50;;;;;9.28;100.00;100947.22;5014763;28;46398;-79
2023/02/24 07:27:26;;;;;;;;;35.25;22.25;;;;;9.25;100.00;100957.69;4997888;28;45279;-77
2023/02/24 07:29:52;;;;;;;;;36.50;23.75;;;;;9.19;100.00;100954.34;5010802;28;61305;-78
2023/02/24 07:32:17;;;;;;;;;32.50;21.50;;;;;9.22;100.00;100952.56;5015484;28;45538;-78
2023/02/24 07:34:43;;;;;;;;;34.75;23.75;;;;;9.15;100.00;100943.16;5014254;28;73814;-78
2023/02/24 07:37:09;;;;;;;;;31.25;22.75;;;;;9.27;100.00;100958.53;5015211;28;45362;-79
2023/02/24 07:39:36;;;;;;;;;38.75;21.25;;;;;9.25;100.00;100962.03;4997620;28;45400;-78
2023/02/24 07:42:01;;;;;;;;;33.50;21.75;;;;;9.07;100.00;100938.13;5014845;28;45306;-78
2023/02/24 07:44:30;;;;;;;;;33.25;24.00;;;;;9.21;100.00;100957.78;4994668;28;45517;-78
2023/02/24 07:46:58;;;;;;;;;37.50;23.25;;;;;9.10;100.00;100943.28;4995142;28;45439;-77
2023/02/24 07:49:24;;;;;;;;;34.00;22.25;;;;;9.27;100.00;100970.66;5033192;28;45630;-77
2023/02/24 07:51:51;;;;;;;;;21.75;17.25;;;;;9.15;100.00;100942.31;5036449;28;45276;-79
2023/02/24 07:54:17;;;;;;;;;30.75;24.25;;;;;9.22;100.00;100949.94;5037695;28;46155;-79
2023/02/24 07:56:47;;;;;;;;;31.75;23.25;;;;;9.22;100.00;100938.72;5037546;28;46000;-79
2023/02/24 07:59:18;;;;;;;;;29.25;21.00;;;;;9.25;100.00;100943.88;5037688;28;45442;-80
2023/02/24 08:01:49;;;;;;;;;30.00;24.75;;;;;9.34;100.00;100959.22;5037164;28;45434;-79
2023/02/24 08:04:22;;;;;;;;;32.00;22.75;;;;;9.33;100.00;100962.72;5036336;28;46223;-78
2023/02/24 08:06:54;;;;;;;;;32.75;21.00;;;;;9.31;100.00;100959.31;5037992;28;45400;-78
2023/02/24 08:09:45;;;;;;;;;28.00;21.00;;;;;9.24;100.00;100942.97;5036321;28;45449;-78
2023/02/24 08:12:06;;;;;;;;;28.25;17.50;;;;;9.34;100.00;100959.22;5037326;28;45357;-79
2023/02/24 08:14:33;;;;;;;;;23.25;15.25;;;;;9.38;100.00;100949.63;5037809;28;47167;-78
2023/02/24 08:17:00;;;;;;;;;31.00;21.75;;;;;9.41;100.00;100963.41;5036433;28;45271;-79
2023/02/24 08:19:38;;;;;;;;;28.50;21.50;;;;;9.43;100.00;100959.03;5037835;28;45442;-78
2023/02/24 08:22:24;;;;;;;;;22.00;17.00;;;;;9.34;100.00;100938.44;5037479;28;45580;-78
2023/02/24 08:24:59;;;;;;;;;30.00;21.50;;;;;9.29;100.00;100937.72;5036353;28;46106;-78
2023/02/24 08:27:29;;;;;;;;;24.75;18.00;;;;;9.35;100.00;100928.94;5037546;28;45687;-79
2023/02/24 08:29:58;;;;;;;;;29.50;16.50;;;;;9.39;100.00;100917.59;5037856;28;45385;-79
2023/02/24 08:32:32;;;;;;;;;25.75;18.75;;;;;9.52;100.00;100932.03;5037643;28;45612;-78
2023/02/24 08:35:03;;;;;;;;;27.75;16.00;;;;;9.49;100.00;100913.91;5036169;28;46650;-79
2023/02/24 08:37:38;;;;;;;;;26.75;17.00;;;;;9.50;100.00;100905.22;5035488;28;45777;-80
2023/02/24 08:40:36;;;;;;;;;24.75;17.25;;;;;9.50;100.00;100903.47;5025791;28;46005;-80
2023/02/24 08:42:57;;;;;;;;;31.75;19.75;;;;;9.64;100.00;100917.94;5019457;28;45558;-79
2023/02/24 08:45:25;;;;;;;;;28.00;17.50;;;;;9.78;100.00;100917.59;5016831;28;46969;-79
2023/02/24 08:47:52;;;;;;;;;23.75;18.25;;;;;9.86;100.00;100911.34;5036563;28;45455;-79
2023/02/24 08:50:20;;;;;;;;;23.00;18.25;;;;;9.94;100.00;100905.97;5036950;28;45439;-78
2023/02/24 08:52:45;;;;;;;;;26.50;17.50;;;;;9.99;100.00;100904.13;5041073;28;45477;-79
2023/02/24 08:55:11;;;;;;;;;24.00;20.00;;;;;10.02;100.00;100905.78;5033785;28;57353;-78
2023/02/24 08:57:36;;;;;;;;;5.50;0.00;;;;;10.02;100.00;100891.03;5032070;28;62100;-78
2023/02/24 09:00:05;;;;;;;;;20.00;17.75;;;;;10.12;100.00;100899.44;5028820;28;57604;-76
2023/02/24 09:02:36;;;;;;;;;20.75;17.50;;;;;10.23;100.00;100915.66;5035104;28;45278;-78
2023/02/24 09:05:04;;;;;;;;;18.25;14.25;;;;;10.25;100.00;100902.59;5046245;28;46625;-79
2023/02/24 09:07:35;;;;;;;;;25.75;19.50;;;;;10.36;100.00;100908.41;5048470;28;45747;-80
2023/02/24 09:10:02;;;;;;;;;26.00;19.25;;;;;10.27;100.00;100888.69;5042500;28;45513;-78
2023/02/24 09:12:29;;;;;;;;;28.00;15.75;;;;;10.40;100.00;100909.19;5045142;28;45450;-80
2023/02/24 09:15:06;;;;;;;;;33.25;13.00;;;;;10.44;100.00;100916.91;5041619;28;46357;-81
2023/02/24 09:23:02;;;;;;;;;22.25;17.25;;;;;10.60;100.00;100917.34;5048976;28;45467;-77
2023/02/24 09:25:48;;;;;;;;;31.25;17.75;;;;;10.61;100.00;100919.06;5033073;28;46987;-77
2023/02/24 09:28:23;;;;;;;;;24.50;14.75;;;;;10.63;100.00;100919.03;5036508;28;45594;-74
2023/02/24 09:31:03;;;;;;;;;27.00;17.00;;;;;10.59;100.00;100923.47;5031519;28;45372;-77
2023/02/24 09:33:40;;;;;;;;;35.25;19.00;;;;;10.57;100.00;100916.59;5034765;28;45594;-77
2023/02/24 09:36:26;;;;;;;;;29.50;18.00;;;;;10.64;100.00;100923.31;5036374;28;46414;-78
2023/02/24 09:41:52;;;;;;;;;27.50;19.75;;;;;10.89;100.00;100912.28;5033027;28;45517;-78
2023/02/24 09:44:27;;;;;;;;;18.75;13.00;;;;;10.95;100.00;100915.56;5048205;28;45370;-77
2023/02/24 09:47:18;;;;;;;;;26.75;17.25;;;;;10.95;100.00;100923.38;5034448;28;47217;-78
2023/02/24 09:49:48;;;;;;;;;25.50;17.00;;;;;10.94;100.00;100921.66;5038249;28;45416;-78
2023/02/24 09:52:17;;;;;;;;;27.00;14.25;;;;;10.84;100.00;100899.38;5020342;28;45331;-77
2023/02/24 09:55:11;;;;;;;;;20.75;17.00;;;;;10.89;100.00;100905.31;5050700;28;45487;-78
2023/02/24 09:57:36;;;;;;;;;16.00;14.50;;;;;10.86;100.00;100905.38;5049654;28;45910;-79
2023/02/24 10:00:32;;;;;;;;;26.75;14.75;;;;;10.91;100.00;100908.72;5085379;27;45473;-77
2023/02/24 10:03:18;;;;;;;;;23.00;15.75;;;;;10.94;100.00;100889.53;5039071;28;45238;-78
2023/02/24 10:06:14;;;;;;;;;21.75;15.00;;;;;11.19;100.00;100898.38;5033237;28;45380;-78
2023/02/24 10:08:45;;;;;;;;;17.50;14.50;;;;;11.31;100.00;100880.66;5001017;28;46524;-78
2023/02/24 10:11:11;;;;;;;;;18.50;16.25;;;;;11.41;100.00;100874.28;5030473;28;45810;-78
2023/02/24 10:13:48;;;;;;;;;21.50;15.25;;;;;11.38;100.00;100867.41;5041958;28;64226;-78
2023/02/24 10:16:22;;;;;;;;;22.25;14.50;;;;;11.51;100.00;100886.13;5073297;27;45467;-78
2023/02/24 10:19:17;;;;;;;;;27.50;15.00;;;;;11.35;100.00;100856.25;5049558;28;46189;-78
2023/02/24 10:22:06;;;;;;;;;20.75;14.50;;;;;11.38;100.00;100871.78;5043585;28;45853;-78
2023/02/24 10:24:46;;;;;;;;;18.75;14.00;;;;;11.33;100.00;100858.03;5050523;28;45408;-78
2023/02/24 10:27:22;;;;;;;;;20.75;17.25;;;;;11.29;100.00;100857.28;5064109;27;45342;-77
2023/02/24 10:30:18;;;;;;;;;19.75;16.75;;;;;11.31;100.00;100859.81;5062429;27;46207;-79
2023/02/24 10:32:51;;;;;;;;;25.75;13.50;;;;;11.36;100.00;100857.94;5029120;28;45839;-78
2023/02/24 10:35:19;;;;;;;;;19.25;15.50;;;;;11.37;100.00;100863.09;5046110;28;45271;-77
2023/02/24 10:37:45;;;;;;;;;17.25;15.25;;;;;11.45;100.00;100856.81;5050812;28;45463;-78
2023/02/24 10:40:16;;;;;;;;;21.00;14.25;;;;;11.53;100.00;100849.59;5044714;28;59729;-78
2023/02/24 10:42:46;;;;;;;;;18.25;14.00;;;;;11.63;100.00;100854.47;5045429;28;45788;-77
2023/02/24 10:45:30;;;;;;;;;22.75;12.50;;;;;11.75;100.00;100853.22;5045771;28;45696;-77
2023/02/24 10:47:57;;;;;;;;;22.00;16.00;;;;;11.83;100.00;100829.53;5043352;28;45406;-77
2023/02/24 10:50:42;;;;;;;;;19.00;13.00;;;;;11.94;100.00;100830.06;5033857;28;47764;-77
2023/02/24 10:53:25;;;;;;;;;18.25;16.25;;;;;12.15;100.00;100845.91;5050474;28;45900;-76
2023/02/24 10:56:00;;;;;;;;;20.50;12.00;;;;;12.23;100.00;100838.66;5031342;28;45524;-78
2023/02/24 10:58:43;;;;;;;;;16.75;12.00;;;;;12.31;100.00;100835.78;5049471;28;45519;-77
2023/02/24 11:01:19;;;;;;;;;14.25;12.00;;;;;12.45;100.00;100854.44;5024573;28;46097;-77
2023/02/24 11:04:11;;;;;;;;;15.50;12.00;;;;;12.56;100.00;100841.84;5040200;28;45433;-78
2023/02/24 11:09:28;;;;;;;;;12.25;12.00;;;;;12.86;100.00;100835.59;5026666;28;45552;-78
2023/02/24 11:17:35;;;;;;;;;11.50;7.75;;;;;13.00;100.00;100817.63;5030367;28;45551;-78
2023/02/24 11:20:37;;;;;;;;;12.25;10.50;;;;;13.10;100.00;100815.53;5044641;28;45302;-77
2023/02/24 11:23:07;;;;;;;;;14.50;11.00;;;;;13.24;100.00;100809.75;5030720;28;47187;-78
2023/02/24 11:25:39;;;;;;;;;11.25;7.75;;;;;13.36;100.00;100804.09;5032263;28;45540;-78
2023/02/24 11:28:23;;;;;;;;;9.00;9.00;;;;;13.44;100.00;100809.84;5048403;28;45465;-76
2023/02/24 11:31:10;;;;;;;;;9.00;8.00;;;;;13.42;100.00;100810.84;5029756;28;45349;-78
2023/02/24 11:33:53;;;;;;;;;18.75;12.00;;;;;13.40;99.89;100794.34;5040340;28;46198;-78
2023/02/24 11:36:28;;;;;;;;;12.75;8.50;;;;;13.33;99.06;100767.59;5053048;28;45957;-77
2023/02/24 11:38:59;;;;;;;;;14.00;9.50;;;;;13.49;99.27;100791.38;5025201;28;45404;-79
2023/02/24 11:41:29;;;;;;;;;15.50;13.00;;;;;13.68;99.27;100778.41;5028868;28;45436;-79
2023/02/24 11:44:09;;;;;;;;;13.50;7.50;;;;;13.69;97.96;100754.78;5050928;28;46202;-79
2023/02/24 11:46:40;;;;;;;;;11.50;8.25;;;;;13.93;98.51;100752.06;5038882;28;45823;-79
2023/02/24 11:49:21;;;;;;;;;8.75;6.75;;;;;14.85;100.00;100749.75;5044632;28;45409;-79
2023/02/24 11:51:46;;;;;;;;;9.75;5.25;;;;;16.61;99.51;100750.56;5044899;28;45726;-77